createdAt,value
2018-06-21T00:00:37.832Z,4.00
2018-06-21T00:01:38.000Z,4.00
2018-06-21T00:02:38.169Z,4.00
2018-06-21T00:03:38.337Z,4.00
2018-06-21T00:04:38.515Z,4.00
2018-06-21T00:05:38.680Z,4.00
2018-06-21T00:08:21.247Z,4.00
2018-06-21T00:09:21.411Z,4.00
2018-06-21T00:10:21.587Z,4.00
2018-06-21T00:11:21.752Z,4.00
2018-06-21T00:12:21.936Z,4.00
2018-06-21T00:13:22.102Z,4.00
2018-06-21T00:14:22.273Z,4.00
2018-06-21T00:15:22.439Z,4.00
2018-06-21T00:16:22.606Z,4.00
2018-06-21T00:17:22.774Z,4.00
2018-06-21T00:18:22.942Z,4.00
2018-06-21T00:19:23.102Z,4.00
2018-06-21T00:20:23.269Z,4.00
2018-06-21T00:21:23.442Z,4.00
2018-06-21T00:22:23.606Z,4.00
2018-06-21T00:25:05.881Z,4.00
2018-06-21T00:26:06.055Z,4.00
2018-06-21T00:27:06.223Z,4.00
2018-06-21T00:28:06.390Z,4.00
2018-06-21T00:29:06.557Z,4.00
2018-06-21T00:30:06.722Z,4.00
2018-06-21T00:31:06.893Z,4.00
2018-06-21T00:32:07.056Z,4.00
2018-06-21T00:33:07.226Z,4.00
2018-06-21T00:34:07.396Z,4.00
2018-06-21T00:36:49.693Z,4.00
2018-06-21T00:37:49.861Z,4.00
2018-06-21T00:38:50.031Z,4.00
2018-06-21T00:39:50.198Z,4.00
2018-06-21T00:40:50.374Z,4.00
2018-06-21T00:41:50.538Z,4.00
2018-06-21T00:42:50.707Z,4.00
2018-06-21T00:43:50.877Z,4.00
2018-06-21T00:44:51.044Z,4.00
2018-06-21T00:45:51.223Z,4.00
2018-06-21T00:46:51.395Z,4.00
2018-06-21T00:47:51.563Z,4.00
2018-06-21T00:48:51.742Z,4.00
2018-06-21T00:49:51.906Z,4.00
2018-06-21T00:50:52.076Z,4.00
2018-06-21T01:13:03.491Z,4.00
2018-06-21T01:14:03.183Z,4.00
2018-06-21T01:15:03.338Z,4.00
2018-06-21T01:16:03.493Z,4.00
2018-06-21T01:17:03.668Z,4.00
2018-06-21T01:18:03.837Z,4.00
2018-06-21T01:19:04.009Z,4.00
2018-06-21T01:20:04.179Z,4.00
2018-06-21T01:21:04.342Z,4.00
2018-06-21T01:22:04.515Z,4.00
2018-06-21T01:23:04.678Z,4.00
2018-06-21T01:24:04.865Z,4.00
2018-06-21T01:25:05.035Z,4.00
2018-06-21T01:26:05.188Z,4.00
2018-06-21T01:27:05.373Z,4.00
2018-06-21T01:29:47.642Z,4.00
2018-06-21T01:30:47.809Z,4.00
2018-06-21T01:31:47.981Z,4.00
2018-06-21T01:32:48.159Z,4.00
2018-06-21T01:33:48.332Z,4.00
2018-06-21T01:34:48.489Z,4.00
2018-06-21T01:35:48.652Z,4.00
2018-06-21T01:36:48.817Z,4.00
2018-06-21T01:37:49.009Z,4.00
2018-06-21T01:38:49.171Z,4.00
2018-06-21T01:39:49.342Z,4.00
2018-06-21T01:40:49.515Z,4.00
2018-06-21T01:41:49.674Z,4.00
2018-06-21T01:42:49.864Z,4.00
2018-06-21T01:43:50.031Z,4.00
2018-06-21T01:46:32.603Z,4.00
2018-06-21T01:47:32.762Z,4.00
2018-06-21T01:48:32.933Z,4.00
2018-06-21T01:49:33.107Z,4.00
2018-06-21T01:50:33.259Z,4.00
2018-06-21T01:51:33.442Z,4.00
2018-06-21T01:52:33.610Z,4.00
2018-06-21T01:53:33.779Z,4.00
2018-06-21T01:54:33.943Z,4.00
2018-06-21T01:55:34.111Z,4.00
2018-06-21T01:56:34.281Z,4.00
2018-06-21T01:57:34.448Z,4.00
2018-06-21T01:58:34.619Z,4.00
2018-06-21T01:59:34.788Z,4.00
2018-06-21T02:00:34.971Z,4.00
2018-06-21T02:03:17.227Z,4.00
2018-06-21T02:04:17.388Z,4.00
2018-06-21T02:05:17.567Z,4.00
2018-06-21T02:06:17.728Z,4.00
2018-06-21T02:07:17.898Z,4.00
2018-06-21T02:08:18.071Z,4.00
2018-06-21T02:09:18.238Z,4.00
2018-06-21T02:10:18.404Z,4.00
2018-06-21T02:11:18.572Z,4.00
2018-06-21T02:12:18.739Z,4.00
2018-06-21T02:13:18.893Z,4.00
2018-06-21T02:14:19.081Z,4.00
2018-06-21T02:15:19.248Z,4.00
2018-06-21T02:16:19.420Z,4.00
2018-06-21T02:17:19.585Z,4.00
2018-06-21T02:23:10.206Z,4.00
2018-06-21T02:24:10.379Z,4.00
2018-06-21T02:25:10.557Z,4.00
2018-06-21T02:26:10.720Z,4.00
2018-06-21T02:27:10.893Z,4.00
2018-06-21T02:28:11.061Z,4.00
2018-06-21T02:29:11.227Z,4.00
2018-06-21T02:30:11.401Z,4.00
2018-06-21T02:31:11.568Z,4.00
2018-06-21T02:32:11.739Z,4.00
2018-06-21T02:33:11.901Z,0.00
2018-06-21T02:34:12.110Z,0.00
2018-06-21T02:35:12.242Z,0.00
2018-06-21T02:36:12.400Z,4.00
2018-06-21T02:37:12.567Z,4.00
2018-06-21T02:39:55.122Z,4.00
2018-06-21T02:40:55.290Z,4.00
2018-06-21T02:41:55.462Z,8.00
2018-06-21T02:42:55.627Z,4.00
2018-06-21T02:43:55.795Z,4.00
2018-06-21T02:44:55.962Z,4.00
2018-06-21T02:45:56.138Z,4.00
2018-06-21T02:46:56.306Z,8.00
2018-06-21T02:47:57.372Z,4.00
2018-06-21T02:48:56.668Z,4.00
2018-06-21T02:49:56.841Z,4.00
2018-06-21T02:50:57.004Z,4.00
2018-06-21T02:51:57.179Z,8.00
2018-06-21T02:52:57.346Z,4.00
2018-06-21T02:53:57.520Z,8.00
2018-06-21T03:02:58.317Z,16.00
2018-06-21T03:03:58.418Z,16.00
2018-06-21T03:04:58.526Z,20.00
2018-06-21T03:05:58.692Z,20.00
2018-06-21T03:06:58.855Z,24.00
2018-06-21T03:07:59.021Z,24.00
2018-06-21T03:08:59.191Z,28.00
2018-06-21T03:09:59.356Z,24.00
2018-06-21T03:10:59.520Z,28.00
2018-06-21T03:11:59.695Z,32.00
2018-06-21T03:12:59.861Z,36.00
2018-06-21T03:14:00.040Z,32.00
2018-06-21T03:15:00.200Z,36.00
2018-06-21T03:16:00.374Z,40.00
2018-06-21T03:17:01.289Z,44.00
2018-06-21T03:19:43.101Z,48.00
2018-06-21T03:20:43.272Z,52.00
2018-06-21T03:21:43.443Z,56.00
2018-06-21T03:22:43.607Z,56.00
2018-06-21T03:23:43.771Z,60.00
2018-06-21T03:24:43.943Z,68.00
2018-06-21T03:25:44.109Z,68.00
2018-06-21T03:26:44.282Z,72.00
2018-06-21T03:27:44.445Z,72.00
2018-06-21T03:28:44.613Z,80.00
2018-06-21T03:31:26.882Z,92.00
2018-06-21T03:32:27.045Z,96.00
2018-06-21T03:33:27.213Z,104.00
2018-06-21T03:34:27.379Z,108.00
2018-06-21T03:35:27.577Z,112.00
2018-06-21T03:36:27.732Z,116.00
2018-06-21T03:37:27.895Z,124.00
2018-06-21T03:38:28.081Z,132.00
2018-06-21T03:39:28.238Z,140.00
2018-06-21T03:40:28.408Z,148.00
2018-06-21T03:43:10.959Z,172.00
2018-06-21T03:44:11.129Z,176.00
2018-06-21T03:45:11.307Z,188.00
2018-06-21T03:46:11.473Z,192.00
2018-06-21T03:47:11.639Z,200.00
2018-06-21T03:48:11.814Z,208.00
2018-06-21T03:49:11.990Z,220.00
2018-06-21T03:50:12.157Z,224.00
2018-06-21T03:51:12.324Z,232.00
2018-06-21T03:52:12.542Z,236.00
2018-06-21T03:54:55.054Z,252.00
2018-06-21T03:55:55.219Z,260.00
2018-06-21T03:56:55.388Z,264.00
2018-06-21T03:57:55.551Z,272.00
2018-06-21T03:58:55.720Z,276.00
2018-06-21T03:59:55.888Z,276.00
2018-06-21T04:00:56.051Z,276.00
2018-06-21T04:01:56.219Z,272.00
2018-06-21T04:02:56.386Z,268.00
2018-06-21T04:03:56.551Z,292.00
2018-06-21T04:06:38.831Z,332.00
2018-06-21T04:07:38.998Z,340.00
2018-06-21T04:08:39.165Z,352.00
2018-06-21T04:09:39.336Z,360.00
2018-06-21T04:10:39.506Z,368.00
2018-06-21T04:11:39.676Z,380.00
2018-06-21T04:12:39.837Z,380.00
2018-06-21T04:13:40.013Z,384.00
2018-06-21T04:14:40.176Z,392.00
2018-06-21T04:15:40.343Z,384.00
2018-06-21T04:16:40.505Z,392.00
2018-06-21T04:17:40.670Z,388.00
2018-06-21T04:18:40.831Z,384.00
2018-06-21T04:19:41.014Z,372.00
2018-06-21T04:20:41.172Z,328.00
2018-06-21T04:23:23.444Z,428.00
2018-06-21T04:24:23.615Z,432.00
2018-06-21T04:25:23.788Z,432.00
2018-06-21T04:26:23.957Z,400.00
2018-06-21T04:27:24.127Z,436.00
2018-06-21T04:28:24.290Z,440.00
2018-06-21T04:29:24.473Z,472.00
2018-06-21T04:30:32.083Z,488.00
2018-06-21T04:31:24.859Z,492.00
2018-06-21T04:32:25.066Z,496.00
2018-06-21T04:33:25.188Z,504.00
2018-06-21T04:34:25.356Z,504.00
2018-06-21T04:35:25.523Z,524.00
2018-06-21T04:36:25.697Z,532.00
2018-06-21T04:37:25.869Z,536.00
2018-06-21T04:38:26.135Z,540.00
2018-06-21T04:39:26.215Z,556.00
2018-06-21T04:40:26.432Z,572.00
2018-06-21T04:41:26.541Z,592.00
2018-06-21T04:42:26.709Z,604.00
2018-06-21T04:43:26.878Z,608.00
2018-06-21T04:44:27.039Z,612.00
2018-06-21T04:47:09.309Z,652.00
2018-06-21T04:48:09.478Z,672.00
2018-06-21T04:49:09.654Z,704.00
2018-06-21T04:50:09.824Z,736.00
2018-06-21T04:51:09.992Z,772.00
2018-06-21T04:52:17.332Z,768.00
2018-06-21T04:53:10.372Z,800.00
2018-06-21T04:54:10.549Z,828.00
2018-06-21T04:55:10.712Z,884.00
2018-06-21T04:56:10.880Z,988.00
2018-06-21T04:57:11.043Z,1032.00
2018-06-21T04:58:18.405Z,1008.00
2018-06-21T04:59:11.314Z,980.00
2018-06-21T05:00:11.473Z,976.00
2018-06-21T05:01:11.638Z,980.00
2018-06-21T05:02:11.810Z,992.00
2018-06-21T05:03:11.979Z,1000.00
2018-06-21T05:04:12.145Z,1028.00
2018-06-21T05:05:13.895Z,1000.00
2018-06-21T05:06:12.434Z,1024.00
2018-06-21T05:07:14.387Z,1032.00
2018-06-21T05:08:12.816Z,1060.00
2018-06-21T05:09:12.976Z,1068.00
2018-06-21T05:10:13.161Z,1108.00
2018-06-21T05:11:13.313Z,1124.00
2018-06-21T05:12:21.430Z,1168.00
2018-06-21T05:13:13.600Z,1188.00
2018-06-21T05:14:13.765Z,1212.00
2018-06-21T05:15:13.941Z,1224.00
2018-06-21T05:16:15.905Z,1248.00
2018-06-21T05:17:14.338Z,1284.00
2018-06-21T05:18:14.532Z,1304.00
2018-06-21T05:19:14.674Z,1336.00
2018-06-21T05:20:14.861Z,1324.00
2018-06-21T05:21:15.041Z,1384.00
2018-06-21T05:22:15.203Z,1412.00
2018-06-21T05:23:15.370Z,1476.00
2018-06-21T05:24:15.540Z,1488.00
2018-06-21T05:25:15.711Z,1540.00
2018-06-21T05:26:15.876Z,1484.00
2018-06-21T05:27:16.044Z,1532.00
2018-06-21T05:29:59.617Z,1604.00
2018-06-21T05:30:59.785Z,1584.00
2018-06-21T05:31:59.965Z,1580.00
2018-06-21T05:33:00.173Z,1672.00
2018-06-21T05:34:00.301Z,1724.00
2018-06-21T05:35:00.446Z,1776.00
2018-06-21T05:36:00.611Z,1956.00
2018-06-21T05:37:00.781Z,2184.00
2018-06-21T05:38:00.943Z,2184.00
2018-06-21T05:39:01.108Z,2116.00
2018-06-21T05:40:01.287Z,2220.00
2018-06-21T05:41:01.456Z,2380.00
2018-06-21T05:42:01.609Z,2432.00
2018-06-21T05:43:01.777Z,2608.00
2018-06-21T05:44:01.959Z,1064.00
2018-06-21T05:46:34.233Z,3644.00
2018-06-21T05:47:34.406Z,1788.00
2018-06-21T05:48:34.579Z,2556.00
2018-06-21T05:49:34.750Z,1060.00
2018-06-21T05:50:34.924Z,2540.00
2018-06-21T05:51:35.090Z,876.00
2018-06-21T05:52:35.260Z,2640.00
2018-06-21T05:53:35.424Z,1048.00
2018-06-21T05:54:36.261Z,3724.00
2018-06-21T05:55:35.804Z,2564.00
2018-06-21T05:56:36.055Z,1620.00
2018-06-21T05:57:36.146Z,1276.00
2018-06-21T05:58:36.315Z,1028.00
2018-06-21T05:59:36.483Z,4116.00
2018-06-21T06:00:36.652Z,4920.00
2018-06-21T06:03:18.923Z,1428.00
2018-06-21T06:04:19.094Z,4036.00
2018-06-21T06:05:19.270Z,3868.00
2018-06-21T06:06:19.435Z,3028.00
2018-06-21T06:07:19.610Z,3504.00
2018-06-21T06:08:19.845Z,3392.00
2018-06-21T06:09:19.937Z,4048.00
2018-06-21T06:10:20.111Z,4300.00
2018-06-21T06:11:20.282Z,3516.00
2018-06-21T06:12:20.463Z,2864.00
2018-06-21T06:15:02.718Z,3384.00
2018-06-21T06:16:02.888Z,3188.00
2018-06-21T06:17:03.079Z,3000.00
2018-06-21T06:18:03.226Z,3308.00
2018-06-21T06:19:03.402Z,2328.00
2018-06-21T06:20:03.623Z,2976.00
2018-06-21T06:21:11.694Z,2632.00
2018-06-21T06:22:03.865Z,3280.00
2018-06-21T06:23:04.056Z,3116.00
2018-06-21T06:24:11.381Z,1568.00
2018-06-21T06:25:04.415Z,1492.00
2018-06-21T06:26:04.603Z,1496.00
2018-06-21T06:27:04.783Z,3224.00
2018-06-21T06:28:04.940Z,2760.00
2018-06-21T06:29:05.098Z,1384.00
2018-06-21T06:30:05.330Z,2508.00
2018-06-21T06:31:05.472Z,1632.00
2018-06-21T06:32:05.624Z,1356.00
2018-06-21T06:33:05.798Z,2976.00
2018-06-21T06:34:05.976Z,2852.00
2018-06-21T06:41:26.663Z,3292.00
2018-06-21T06:42:26.843Z,3232.00
2018-06-21T06:43:27.043Z,3376.00
2018-06-21T06:44:27.216Z,3216.00
2018-06-21T06:45:27.371Z,3460.00
2018-06-21T06:46:27.544Z,3580.00
2018-06-21T06:47:27.712Z,3676.00
2018-06-21T06:48:27.880Z,1972.00
2018-06-21T06:49:28.098Z,1788.00
2018-06-21T06:50:28.245Z,1644.00
2018-06-21T06:51:36.099Z,1820.00
2018-06-21T06:52:28.633Z,1360.00
2018-06-21T06:53:28.807Z,1764.00
2018-06-21T06:54:29.009Z,1460.00
2018-06-21T06:55:29.136Z,2036.00
2018-06-21T06:56:29.305Z,2472.00
2018-06-21T06:57:36.941Z,1520.00
2018-06-21T06:58:29.593Z,2440.00
2018-06-21T06:59:29.767Z,2496.00
2018-06-21T07:00:29.943Z,2240.00
2018-06-21T07:01:30.119Z,1412.00
2018-06-21T07:02:30.289Z,2164.00
2018-06-21T07:03:30.457Z,2464.00
2018-06-21T07:04:30.615Z,1848.00
2018-06-21T07:05:30.780Z,1984.00
2018-06-21T07:06:30.952Z,1716.00
2018-06-21T07:07:32.055Z,1432.00
2018-06-21T07:08:31.321Z,1896.00
2018-06-21T07:09:31.437Z,1612.00
2018-06-21T07:10:31.606Z,1784.00
2018-06-21T07:11:31.777Z,1424.00
2018-06-21T07:14:14.195Z,1580.00
2018-06-21T07:15:14.164Z,1264.00
2018-06-21T07:16:14.335Z,1496.00
2018-06-21T07:17:14.516Z,1824.00
2018-06-21T07:18:14.690Z,2760.00
2018-06-21T07:19:14.859Z,3080.00
2018-06-21T07:20:15.094Z,2296.00
2018-06-21T07:21:16.087Z,2280.00
2018-06-21T07:22:22.537Z,2972.00
2018-06-21T07:23:15.582Z,3128.00
2018-06-21T07:24:15.774Z,3244.00
2018-06-21T07:25:23.104Z,3472.00
2018-06-21T07:26:16.145Z,3380.00
2018-06-21T07:27:16.343Z,3332.00
2018-06-21T07:28:47.507Z,3080.00
2018-06-21T07:29:16.715Z,3476.00
2018-06-21T07:30:16.890Z,3848.00
2018-06-21T07:31:17.059Z,3372.00
2018-06-21T07:32:17.243Z,3076.00
2018-06-21T07:33:17.390Z,3328.00
2018-06-21T07:34:18.131Z,2760.00
2018-06-21T07:35:17.713Z,3272.00
2018-06-21T07:36:17.868Z,3064.00
2018-06-21T07:37:18.634Z,3768.00
2018-06-21T07:38:18.173Z,2744.00
2018-06-21T07:39:18.344Z,2624.00
2018-06-21T07:42:00.682Z,2072.00
2018-06-21T07:43:00.844Z,2004.00
2018-06-21T07:44:01.011Z,2260.00
2018-06-21T07:45:01.177Z,1964.00
2018-06-21T07:46:01.338Z,2248.00
2018-06-21T07:47:01.522Z,2528.00
2018-06-21T07:48:01.681Z,3224.00
2018-06-21T07:49:01.858Z,3312.00
2018-06-21T07:50:02.029Z,2556.00
2018-06-21T07:51:02.187Z,3496.00
2018-06-21T07:52:02.369Z,3488.00
2018-06-21T07:53:02.546Z,3292.00
2018-06-21T07:54:02.716Z,3640.00
2018-06-21T07:55:10.548Z,3260.00
2018-06-21T07:56:03.088Z,2288.00
2018-06-21T07:57:03.259Z,2504.00
2018-06-21T07:58:03.416Z,3108.00
2018-06-21T07:59:03.665Z,3336.00
2018-06-21T08:00:03.783Z,3028.00
2018-06-21T08:01:03.959Z,3072.00
2018-06-21T08:02:04.135Z,3396.00
2018-06-21T08:03:04.298Z,3648.00
2018-06-21T08:04:06.160Z,3128.00
2018-06-21T08:05:04.589Z,3040.00
2018-06-21T08:06:04.760Z,2284.00
2018-06-21T08:07:05.670Z,2852.00
2018-06-21T08:08:05.091Z,2572.00
2018-06-21T08:09:05.253Z,2952.00
2018-06-21T08:11:47.838Z,2620.00
2018-06-21T08:12:48.016Z,2632.00
2018-06-21T08:13:48.178Z,2876.00
2018-06-21T08:14:48.343Z,2732.00
2018-06-21T08:15:48.521Z,2136.00
2018-06-21T08:16:48.693Z,2172.00
2018-06-21T08:17:48.860Z,1756.00
2018-06-21T08:18:49.027Z,2312.00
2018-06-21T08:19:49.201Z,2348.00
2018-06-21T08:20:49.371Z,2724.00
2018-06-21T08:21:57.201Z,2612.00
2018-06-21T08:22:49.739Z,2476.00
2018-06-21T08:23:49.910Z,2536.00
2018-06-21T08:24:50.085Z,2928.00
2018-06-21T08:25:50.251Z,2864.00
2018-06-21T08:26:57.874Z,3460.00
2018-06-21T08:27:50.547Z,2920.00
2018-06-21T08:28:50.755Z,2828.00
2018-06-21T08:29:50.888Z,2496.00
2018-06-21T08:30:51.062Z,2432.00
2018-06-21T08:31:51.235Z,2368.00
2018-06-21T08:32:51.407Z,2140.00
2018-06-21T08:33:51.575Z,2592.00
2018-06-21T08:34:51.743Z,2804.00
2018-06-21T08:35:51.911Z,3140.00
2018-06-21T08:36:52.082Z,2448.00
2018-06-21T08:37:52.280Z,2244.00
2018-06-21T08:38:53.160Z,2264.00
2018-06-21T08:39:52.541Z,1912.00
2018-06-21T08:40:52.731Z,1932.00
2018-06-21T08:43:26.028Z,1524.00
2018-06-21T08:44:25.197Z,1804.00
2018-06-21T08:45:25.396Z,2364.00
2018-06-21T08:46:25.541Z,1448.00
2018-06-21T08:47:25.721Z,1940.00
2018-06-21T08:50:08.276Z,1432.00
2018-06-21T08:51:08.441Z,1336.00
2018-06-21T08:52:08.735Z,1300.00
2018-06-21T08:53:08.802Z,1376.00
2018-06-21T08:54:09.001Z,1744.00
2018-06-21T08:55:09.165Z,1484.00
2018-06-21T08:56:09.344Z,1532.00
2018-06-21T08:57:09.513Z,1636.00
2018-06-21T08:58:10.527Z,1816.00
2018-06-21T08:59:09.819Z,1344.00
2018-06-21T09:00:09.994Z,1508.00
2018-06-21T09:01:10.176Z,1280.00
2018-06-21T09:02:10.335Z,964.00
2018-06-21T09:03:11.013Z,912.00
2018-06-21T09:04:10.695Z,852.00
2018-06-21T09:06:52.976Z,516.00
2018-06-21T09:07:53.145Z,480.00
2018-06-21T09:08:53.304Z,460.00
2018-06-21T09:09:53.485Z,432.00
2018-06-21T09:10:53.657Z,388.00
2018-06-21T09:11:53.828Z,376.00
2018-06-21T09:12:54.000Z,376.00
2018-06-21T09:13:54.170Z,372.00
2018-06-21T09:14:54.351Z,332.00
2018-06-21T09:15:54.523Z,280.00
2018-06-21T09:16:54.715Z,264.00
2018-06-21T09:17:54.898Z,312.00
2018-06-21T09:18:55.995Z,392.00
2018-06-21T09:19:55.301Z,480.00
2018-06-21T09:20:55.476Z,624.00
2018-06-21T09:23:27.748Z,1036.00
2018-06-21T09:24:27.933Z,1236.00
2018-06-21T09:25:28.111Z,1412.00
2018-06-21T09:26:28.263Z,1508.00
2018-06-21T09:27:28.432Z,1456.00
2018-06-21T09:28:28.613Z,1460.00
2018-06-21T09:29:28.781Z,1564.00
2018-06-21T09:30:28.952Z,2688.00
2018-06-21T09:31:36.584Z,1844.00
2018-06-21T09:32:29.250Z,1928.00
2018-06-21T09:33:29.422Z,2560.00
2018-06-21T09:34:29.579Z,2140.00
2018-06-21T09:35:29.750Z,2348.00
2018-06-21T09:36:29.919Z,2516.00
2018-06-21T09:37:30.097Z,2568.00
2018-06-21T09:38:30.261Z,1820.00
2018-06-21T09:39:30.427Z,2352.00
2018-06-21T09:40:30.599Z,1560.00
2018-06-21T09:43:02.922Z,880.00
2018-06-21T09:44:04.357Z,888.00
2018-06-21T09:45:03.267Z,880.00
2018-06-21T09:46:03.437Z,924.00
2018-06-21T09:47:03.617Z,836.00
2018-06-21T09:48:03.781Z,820.00
2018-06-21T09:49:03.952Z,884.00
2018-06-21T09:50:04.110Z,976.00
2018-06-21T09:51:04.294Z,1020.00
2018-06-21T09:52:11.913Z,1012.00
2018-06-21T09:53:04.626Z,1036.00
2018-06-21T09:54:04.792Z,1008.00
2018-06-21T09:55:04.955Z,1124.00
2018-06-21T09:56:07.923Z,1312.00
2018-06-21T09:57:05.338Z,1532.00
2018-06-21T09:58:05.515Z,1536.00
2018-06-21T09:59:05.680Z,1432.00
2018-06-21T10:00:05.850Z,1316.00
2018-06-21T10:01:06.022Z,1220.00
2018-06-21T10:02:06.191Z,1032.00
2018-06-21T10:03:06.364Z,904.00
2018-06-21T10:04:08.433Z,872.00
2018-06-21T10:05:06.729Z,832.00
2018-06-21T10:06:08.427Z,836.00
2018-06-21T10:08:49.220Z,996.00
2018-06-21T10:09:50.245Z,1064.00
2018-06-21T10:10:49.543Z,1076.00
2018-06-21T10:11:49.704Z,1096.00
2018-06-21T10:12:49.881Z,976.00
2018-06-21T10:13:50.047Z,868.00
2018-06-21T10:14:50.214Z,756.00
2018-06-21T10:15:50.423Z,652.00
2018-06-21T10:16:50.554Z,480.00
2018-06-21T10:17:50.720Z,356.00
2018-06-21T10:20:33.081Z,400.00
2018-06-21T10:21:33.153Z,408.00
2018-06-21T10:22:33.716Z,340.00
2018-06-21T10:23:33.486Z,280.00
2018-06-21T10:24:42.050Z,324.00
2018-06-21T10:25:33.978Z,272.00
2018-06-21T10:26:33.967Z,268.00
2018-06-21T10:27:46.084Z,300.00
2018-06-21T10:28:34.371Z,344.00
2018-06-21T10:29:34.543Z,432.00
2018-06-21T10:30:43.041Z,560.00
2018-06-21T10:31:34.822Z,724.00
2018-06-21T10:32:35.018Z,908.00
2018-06-21T10:33:35.186Z,976.00
2018-06-21T10:34:35.364Z,912.00
2018-06-21T10:35:35.528Z,900.00
2018-06-21T10:36:35.699Z,956.00
2018-06-21T10:37:35.867Z,916.00
2018-06-21T10:38:36.041Z,940.00
2018-06-21T10:39:36.221Z,952.00
2018-06-21T10:40:36.420Z,956.00
2018-06-21T10:41:36.622Z,960.00
2018-06-21T10:42:36.844Z,900.00
2018-06-21T10:43:36.941Z,864.00
2018-06-21T10:44:37.111Z,836.00
2018-06-21T10:45:45.569Z,808.00
2018-06-21T10:46:37.451Z,784.00
2018-06-21T10:47:38.605Z,744.00
2018-06-21T10:48:37.779Z,676.00
2018-06-21T10:49:37.951Z,740.00
2018-06-21T10:50:38.126Z,756.00
2018-06-21T10:51:42.121Z,764.00
2018-06-21T10:52:46.036Z,792.00
2018-06-21T10:53:38.758Z,764.00
2018-06-21T10:54:38.943Z,772.00
2018-06-21T10:55:39.109Z,820.00
2018-06-21T10:56:39.364Z,972.00
2018-06-21T10:57:39.825Z,1052.00
2018-06-21T10:58:42.200Z,1228.00
2018-06-21T10:59:39.753Z,1348.00
2018-06-21T11:00:39.934Z,1492.00
2018-06-21T11:01:40.089Z,1632.00
2018-06-21T11:02:40.254Z,1748.00
2018-06-21T11:03:41.150Z,3056.00
2018-06-21T11:04:40.570Z,3112.00
2018-06-21T11:05:40.672Z,3056.00
2018-06-21T11:06:41.568Z,2508.00
2018-06-21T11:09:23.216Z,2532.00
2018-06-21T11:10:24.201Z,2224.00
2018-06-21T11:11:23.508Z,2116.00
2018-06-21T11:12:24.209Z,2084.00
2018-06-21T11:13:31.547Z,1960.00
2018-06-21T11:14:24.085Z,1812.00
2018-06-21T11:15:24.254Z,1708.00
2018-06-21T11:16:24.441Z,1720.00
2018-06-21T11:17:24.612Z,1608.00
2018-06-21T11:18:24.774Z,1584.00
2018-06-21T11:19:24.942Z,1672.00
2018-06-21T11:20:25.112Z,1752.00
2018-06-21T11:21:25.313Z,1696.00
2018-06-21T11:22:25.468Z,1724.00
2018-06-21T11:23:26.148Z,1872.00
2018-06-21T11:24:33.520Z,1548.00
2018-06-21T11:25:25.957Z,1512.00
2018-06-21T11:26:26.109Z,1636.00
2018-06-21T11:27:26.277Z,1572.00
2018-06-21T11:28:26.456Z,1552.00
2018-06-21T11:29:26.623Z,1632.00
2018-06-21T11:30:26.809Z,1516.00
2018-06-21T11:31:27.741Z,1412.00
2018-06-21T11:32:27.159Z,2040.00
2018-06-21T11:33:27.330Z,1984.00
2018-06-21T11:34:35.463Z,1740.00
2018-06-21T11:35:27.635Z,2340.00
2018-06-21T11:36:27.803Z,1884.00
2018-06-21T11:37:27.971Z,2536.00
2018-06-21T11:38:28.211Z,2304.00
2018-06-21T11:39:28.321Z,2696.00
2018-06-21T11:40:30.255Z,2220.00
2018-06-21T11:41:30.250Z,2288.00
2018-06-21T11:42:36.014Z,2284.00
2018-06-21T11:43:29.916Z,2540.00
2018-06-21T11:44:29.155Z,2320.00
2018-06-21T11:45:30.280Z,2448.00
2018-06-21T11:46:29.450Z,2380.00
2018-06-21T11:47:29.622Z,2408.00
2018-06-21T11:48:29.796Z,2380.00
2018-06-21T11:49:30.787Z,2368.00
2018-06-21T11:50:38.048Z,2364.00
2018-06-21T11:51:30.207Z,2364.00
2018-06-21T11:52:30.381Z,2492.00
2018-06-21T11:53:30.546Z,2492.00
2018-06-21T11:54:30.726Z,1204.00
2018-06-21T11:55:30.909Z,1256.00
2018-06-21T11:56:31.047Z,1304.00
2018-06-21T11:57:31.217Z,2360.00
2018-06-21T11:58:31.388Z,1660.00
2018-06-21T11:59:31.556Z,2424.00
2018-06-21T12:00:31.726Z,1292.00
2018-06-21T12:01:31.893Z,2520.00
2018-06-21T12:02:32.081Z,1572.00
2018-06-21T12:03:32.236Z,2444.00
2018-06-21T12:04:40.392Z,2444.00
2018-06-21T12:05:32.550Z,2300.00
2018-06-21T12:06:32.721Z,2164.00
2018-06-21T12:07:33.846Z,2328.00
2018-06-21T12:08:33.017Z,2220.00
2018-06-21T12:09:33.182Z,2268.00
2018-06-21T12:10:34.353Z,2264.00
2018-06-21T12:11:33.536Z,2264.00
2018-06-21T12:12:33.703Z,2184.00
2018-06-21T12:13:33.875Z,2076.00
2018-06-21T12:14:34.044Z,2080.00
2018-06-21T12:17:18.869Z,2236.00
2018-06-21T12:18:17.781Z,2308.00
2018-06-21T12:19:17.990Z,1244.00
2018-06-21T12:20:18.166Z,2268.00
2018-06-21T12:21:18.341Z,940.00
2018-06-21T12:22:18.508Z,1084.00
2018-06-21T12:23:18.678Z,2160.00
2018-06-21T12:24:26.507Z,2588.00
2018-06-21T12:25:19.049Z,1196.00
2018-06-21T12:26:19.272Z,1080.00
2018-06-21T12:27:19.385Z,1068.00
2018-06-21T12:28:27.038Z,1048.00
2018-06-21T12:29:19.714Z,1052.00
2018-06-21T12:30:19.872Z,1196.00
2018-06-21T12:31:20.052Z,1092.00
2018-06-21T12:32:20.217Z,1144.00
2018-06-21T12:33:20.389Z,1152.00
2018-06-21T12:34:20.569Z,1164.00
2018-06-21T12:35:20.729Z,2332.00
2018-06-21T12:36:20.918Z,2348.00
2018-06-21T12:37:21.088Z,2292.00
2018-06-21T12:38:21.273Z,2276.00
2018-06-21T12:39:21.460Z,2340.00
2018-06-21T12:40:21.617Z,2360.00
2018-06-21T12:41:21.785Z,2420.00
2018-06-21T12:42:21.977Z,2092.00
2018-06-21T12:44:54.293Z,2164.00
2018-06-21T12:45:54.473Z,1944.00
2018-06-21T12:46:54.665Z,1072.00
2018-06-21T12:47:54.827Z,1752.00
2018-06-21T12:48:54.997Z,1164.00
2018-06-21T12:49:55.173Z,1000.00
2018-06-21T12:50:55.346Z,1004.00
2018-06-21T12:51:55.520Z,2152.00
2018-06-21T12:52:55.687Z,2232.00
2018-06-21T12:53:55.877Z,2204.00
2018-06-21T12:56:28.320Z,2472.00
2018-06-21T12:57:28.279Z,2536.00
2018-06-21T12:58:28.451Z,2496.00
2018-06-21T12:59:28.613Z,1064.00
2018-06-21T13:00:28.779Z,1076.00
2018-06-21T13:01:28.950Z,1252.00
2018-06-21T13:02:29.117Z,1252.00
2018-06-21T13:03:29.288Z,2372.00
2018-06-21T13:04:29.453Z,1944.00
2018-06-21T13:05:29.661Z,1800.00
2018-06-21T13:08:01.929Z,1960.00
2018-06-21T13:09:02.100Z,2124.00
2018-06-21T13:10:02.295Z,2140.00
2018-06-21T13:11:04.446Z,1860.00
2018-06-21T13:12:02.614Z,2024.00
2018-06-21T13:13:02.789Z,2016.00
2018-06-21T13:14:02.960Z,2004.00
2018-06-21T13:15:03.133Z,2076.00
2018-06-21T13:16:03.291Z,2236.00
2018-06-21T13:17:03.453Z,1912.00
2018-06-21T13:18:03.625Z,1948.00
2018-06-21T13:19:03.801Z,2604.00
2018-06-21T13:20:03.969Z,2088.00
2018-06-21T13:21:04.150Z,2104.00
2018-06-21T13:22:12.031Z,1696.00
2018-06-21T13:23:04.518Z,2140.00
2018-06-21T13:24:04.680Z,2328.00
2018-06-21T13:25:13.508Z,2236.00
2018-06-21T13:26:05.044Z,2164.00
2018-06-21T13:27:05.211Z,2160.00
2018-06-21T13:28:05.381Z,2220.00
2018-06-21T13:29:05.555Z,2160.00
2018-06-21T13:30:05.722Z,2104.00
2018-06-21T13:31:05.895Z,2104.00
2018-06-21T13:32:06.065Z,2136.00
2018-06-21T13:33:06.233Z,2200.00
2018-06-21T13:34:06.413Z,2132.00
2018-06-21T13:35:06.597Z,2140.00
2018-06-21T13:36:06.752Z,2148.00
2018-06-21T13:37:06.962Z,2104.00
2018-06-21T13:38:07.080Z,1836.00
2018-06-21T13:39:07.251Z,2172.00
2018-06-21T13:42:50.073Z,992.00
2018-06-21T13:43:50.138Z,2204.00
2018-06-21T13:44:50.326Z,2272.00
2018-06-21T13:45:50.494Z,2248.00
2018-06-21T13:46:50.666Z,2228.00
2018-06-21T13:47:50.837Z,2152.00
2018-06-21T13:48:52.749Z,2172.00
2018-06-21T13:49:59.135Z,2284.00
2018-06-21T13:50:51.292Z,2228.00
2018-06-21T13:51:51.502Z,2200.00
2018-06-21T13:52:52.293Z,2132.00
2018-06-21T13:53:51.860Z,2148.00
2018-06-21T13:54:52.026Z,2128.00
2018-06-21T13:55:52.184Z,2036.00
2018-06-21T13:56:52.380Z,2016.00
2018-06-21T13:57:52.554Z,2096.00
2018-06-21T13:58:52.746Z,2100.00
2018-06-21T13:59:52.920Z,2064.00
2018-06-21T14:00:53.083Z,2092.00
2018-06-21T14:01:53.280Z,2212.00
2018-06-21T14:02:53.457Z,2100.00
2018-06-21T14:03:53.661Z,1620.00
2018-06-21T14:06:35.974Z,2040.00